Time;durP1;ratioP1;P1;durP2;ratioP2;P2;SDS_P1;SDS_P2;PMS_P1;PMS_P2;Temp;Humidity;BMP_temperature;BMP_pressure;BME280_temperature;BME280_humidity;BME280_pressure;Samples;Min_cycle;Max_cycle;Signal;HPM_P1;HPM_P2
2022/11/10 00:01:17;;;;;;;18.58;2.90;;;;;;;9.71;100.00;101765.81;5164697;28;20057;-74
2022/11/10 00:03:49;;;;;;;9.30;2.58;;;;;;;9.70;100.00;101782.91;5164439;28;20056;-74
2022/11/10 00:06:19;;;;;;;21.30;3.72;;;;;;;9.66;100.00;101792.19;5163379;28;20109;-74
2022/11/10 00:08:50;;;;;;;16.08;3.13;;;;;;;9.64;100.00;101788.78;5163777;28;20109;-73
2022/11/10 00:11:20;;;;;;;14.60;3.47;;;;;;;9.59;100.00;101791.91;5164092;28;20056;-74
2022/11/10 00:19:32;;;;;;;14.00;3.08;;;;;;;9.59;100.00;101800.78;5163882;28;20030;-73
2022/11/10 00:22:03;;;;;;;12.00;2.80;;;;;;;9.55;100.00;101793.16;5164288;28;20037;-74
2022/11/10 00:24:33;;;;;;;10.43;3.47;;;;;;;9.55;100.00;101795.81;5165082;28;20022;-74
2022/11/10 00:27:04;;;;;;;16.92;2.97;;;;;;;9.55;100.00;101798.50;5154105;28;20035;-74
2022/11/10 00:29:34;;;;;;;16.60;3.35;;;;;;;9.53;100.00;101813.84;5160587;28;20058;-73
2022/11/10 00:32:05;;;;;;;11.15;2.80;;;;;;;9.51;100.00;101808.63;5155141;28;20034;-73
2022/11/10 00:34:35;;;;;;;21.15;3.17;;;;;;;9.49;100.00;101807.09;5161758;28;20473;-74
2022/11/10 00:37:06;;;;;;;17.40;3.72;;;;;;;9.49;100.00;101807.09;5163613;28;20023;-74
2022/11/10 00:39:36;;;;;;;12.50;2.78;;;;;;;9.48;100.00;101818.78;5164089;28;20019;-74
2022/11/10 00:42:07;;;;;;;17.08;3.08;;;;;;;9.44;100.00;101823.56;5164275;28;20069;-74
2022/11/10 00:44:38;;;;;;;21.90;3.33;;;;;;;9.38;100.00;101826.75;5163417;28;20026;-73
2022/11/10 00:47:08;;;;;;;26.70;4.15;;;;;;;9.29;100.00;101833.78;5163128;28;20062;-73
2022/11/10 00:49:38;;;;;;;15.00;3.20;;;;;;;9.27;100.00;101829.53;5163758;28;20486;-74
2022/11/10 00:52:09;;;;;;;19.38;3.65;;;;;;;9.21;100.00;101828.25;5163845;28;20394;-73
2022/11/10 00:54:39;;;;;;;15.50;3.30;;;;;;;9.17;100.00;101834.00;5163535;28;20081;-73
2022/11/10 00:57:10;;;;;;;12.43;3.40;;;;;;;9.18;100.00;101827.66;5162890;28;20022;-74
2022/11/10 00:59:40;;;;;;;15.75;3.28;;;;;;;9.19;100.00;101840.09;5163831;28;20018;-74
2022/11/10 01:02:11;;;;;;;20.10;3.28;;;;;;;9.17;100.00;101828.66;5163639;28;20053;-74
2022/11/10 01:04:41;;;;;;;22.20;4.32;;;;;;;9.19;100.00;101843.59;5163683;28;20101;-74
2022/11/10 01:07:12;;;;;;;16.92;4.25;;;;;;;9.15;100.00;101836.81;5162646;28;20574;-75
2022/11/10 01:09:42;;;;;;;20.35;3.53;;;;;;;9.15;100.00;101836.81;5163440;28;20030;-73
2022/11/10 01:12:13;;;;;;;17.17;4.15;;;;;;;9.14;100.00;101840.47;5163364;28;20029;-73
2022/11/10 01:14:46;;;;;;;15.27;2.70;;;;;;;9.15;100.00;101841.31;5163218;28;20416;-73
2022/11/10 01:17:17;;;;;;;25.08;3.78;;;;;;;9.16;100.00;101838.50;5162935;28;20489;-74
2022/11/10 01:19:47;;;;;;;23.35;3.53;;;;;;;9.14;100.00;101843.16;5163189;28;20034;-74
2022/11/10 01:22:18;;;;;;;25.05;4.68;;;;;;;9.13;100.00;101841.44;5163400;28;20053;-75
2022/11/10 01:24:48;;;;;;;23.30;4.05;;;;;;;9.15;100.00;101839.50;5165171;28;20049;-73
2022/11/10 01:27:18;;;;;;;25.75;4.00;;;;;;;9.17;100.00;101837.53;5159862;28;20026;-75
2022/11/10 01:29:49;;;;;;;23.55;3.78;;;;;;;9.19;100.00;101848.97;5161919;28;20027;-75
2022/11/10 01:32:19;;;;;;;28.88;4.20;;;;;;;9.21;100.00;101844.31;5152106;28;20094;-75
2022/11/10 01:34:50;;;;;;;24.05;4.15;;;;;;;9.22;100.00;101861.22;5150069;28;20022;-74
2022/11/10 01:37:20;;;;;;;14.85;4.60;;;;;;;9.22;100.00;101870.09;5162712;28;20038;-72
2022/11/10 01:39:51;;;;;;;22.30;3.05;;;;;;;9.22;100.00;101878.13;5163358;28;20026;-73
2022/11/10 01:42:27;;;;;;;13.65;3.13;;;;;;;9.21;100.00;101880.94;5163067;28;20030;-73
2022/11/10 01:45:22;;;;;;;19.90;4.93;;;;;;;9.23;100.00;101871.78;5162887;28;20101;-73
2022/11/10 01:47:55;;;;;;;15.98;2.85;;;;;;;9.25;100.00;101874.34;5149706;28;20401;-73
2022/11/10 01:50:32;;;;;;;17.88;3.10;;;;;;;9.23;100.00;101866.44;5163436;28;20026;-72
2022/11/10 01:53:06;;;;;;;20.27;3.08;;;;;;;9.21;100.00;101864.88;5162753;28;20028;-73
2022/11/10 01:55:40;;;;;;;15.18;3.00;;;;;;;9.18;100.00;101865.97;5163116;28;20018;-73
2022/11/10 01:58:14;;;;;;;23.20;3.97;;;;;;;9.14;100.00;101871.75;5162484;28;20401;-73
2022/11/10 02:00:45;;;;;;;14.98;3.63;;;;;;;9.13;100.00;101872.72;5163123;28;20026;-72
2022/11/10 02:03:24;;;;;;;18.45;3.83;;;;;;;9.14;100.00;101874.44;5163213;28;20050;-72
2022/11/10 02:05:55;;;;;;;17.13;3.10;;;;;;;9.10;100.00;101878.34;5163608;28;20389;-72
2022/11/10 02:08:26;;;;;;;21.63;2.92;;;;;;;9.07;100.00;101874.94;5161484;28;20022;-72
2022/11/10 02:10:57;;;;;;;16.95;3.33;;;;;;;8.99;100.00;101881.94;5163074;28;20033;-72
2022/11/10 02:13:28;;;;;;;16.08;2.97;;;;;;;8.93;100.00;101885.13;5162943;28;20026;-73
2022/11/10 02:15:58;;;;;;;22.27;3.10;;;;;;;8.92;100.00;101883.44;5162645;28;20364;-72
2022/11/10 02:18:29;;;;;;;18.15;3.83;;;;;;;8.94;100.00;101882.34;5162482;28;20042;-74
2022/11/10 02:21:03;;;;;;;20.05;4.15;;;;;;;8.99;100.00;101879.28;5163280;28;20492;-74
2022/11/10 02:23:34;;;;;;;14.05;3.22;;;;;;;8.99;100.00;101882.78;5163353;28;20046;-74
2022/11/10 02:26:05;;;;;;;24.65;3.20;;;;;;;9.00;100.00;101884.50;5162293;28;20031;-73
2022/11/10 02:28:37;;;;;;;22.02;3.28;;;;;;;9.05;100.00;101884.94;5150898;28;20057;-74
2022/11/10 02:31:08;;;;;;;16.95;3.05;;;;;;;9.05;100.00;101892.97;5161415;28;20015;-74
2022/11/10 02:33:39;;;;;;;21.48;2.97;;;;;;;9.01;100.00;101890.69;5153135;28;20037;-73
2022/11/10 02:36:10;;;;;;;20.08;3.28;;;;;;;8.98;100.00;101893.63;5164073;28;20030;-73
2022/11/10 02:38:40;;;;;;;25.25;3.17;;;;;;;8.95;100.00;101897.41;5166133;28;20375;-73
2022/11/10 02:41:12;;;;;;;35.30;3.97;;;;;;;8.95;100.00;101885.88;5165840;28;20029;-73
2022/11/10 02:43:43;;;;;;;24.02;4.25;;;;;;;8.92;100.00;101888.78;5166753;28;20022;-74
2022/11/10 02:46:13;;;;;;;16.10;2.70;;;;;;;8.87;100.00;101881.16;5165916;28;20101;-73
2022/11/10 02:48:44;;;;;;;21.23;3.35;;;;;;;8.87;100.00;101889.19;5165813;28;20026;-73
2022/11/10 02:51:14;;;;;;;15.73;3.53;;;;;;;8.87;100.00;101891.84;5166681;28;20018;-72
2022/11/10 02:53:45;;;;;;;21.17;4.00;;;;;;;8.84;100.00;101894.81;5165713;28;20031;-72
2022/11/10 02:56:16;;;;;;;25.80;4.55;;;;;;;8.86;100.00;101898.19;5166030;28;20028;-73
2022/11/10 02:58:47;;;;;;;28.05;3.63;;;;;;;8.82;100.00;101899.41;5165810;28;20462;-73
2022/11/10 03:01:17;;;;;;;16.73;3.33;;;;;;;8.81;100.00;101905.75;5166069;28;20030;-74
2022/11/10 03:03:52;;;;;;;20.05;3.80;;;;;;;8.77;100.00;101915.00;5165566;28;20084;-72
2022/11/10 03:06:23;;;;;;;29.27;3.17;;;;;;;8.74;100.00;101918.81;5165740;28;20029;-72
2022/11/10 03:08:53;;;;;;;22.33;4.22;;;;;;;8.73;100.00;101933.13;5165263;28;20312;-73
2022/11/10 03:11:24;;;;;;;16.85;3.53;;;;;;;8.72;100.00;101933.28;5165894;28;20053;-73
2022/11/10 03:13:55;;;;;;;27.25;3.45;;;;;;;8.71;100.00;101931.59;5165613;28;20026;-72
2022/11/10 03:16:26;;;;;;;22.17;4.47;;;;;;;8.67;100.00;101933.66;5165302;28;20026;-72
2022/11/10 03:18:56;;;;;;;23.92;3.97;;;;;;;8.66;100.00;101933.78;5165252;28;20026;-72
2022/11/10 03:21:27;;;;;;;19.25;3.45;;;;;;;8.65;100.00;101942.81;5165331;28;20497;-72
2022/11/10 03:23:57;;;;;;;17.30;3.63;;;;;;;8.64;100.00;101941.97;5165504;28;20044;-71
2022/11/10 03:26:28;;;;;;;23.90;3.20;;;;;;;8.67;100.00;101949.69;5161741;28;20054;-72
2022/11/10 03:28:59;;;;;;;24.63;3.10;;;;;;;8.73;100.00;101959.03;5156733;28;20031;-72
2022/11/10 03:31:29;;;;;;;21.13;4.10;;;;;;;8.76;100.00;101965.00;5160839;28;20027;-72
2022/11/10 03:33:59;;;;;;;14.75;3.22;;;;;;;8.76;100.00;101964.16;5158658;28;20061;-71
2022/11/10 03:36:30;;;;;;;22.88;3.95;;;;;;;8.75;100.00;101965.13;5165237;28;20409;-71
2022/11/10 03:39:00;;;;;;;22.30;4.15;;;;;;;8.74;100.00;101966.97;5164778;28;20512;-71
2022/11/10 03:41:31;;;;;;;17.58;3.03;;;;;;;8.76;100.00;101977.53;5164770;28;20025;-73
2022/11/10 03:44:02;;;;;;;18.10;3.33;;;;;;;8.74;100.00;101979.50;5163961;28;20044;-73
2022/11/10 03:46:32;;;;;;;29.30;4.30;;;;;;;8.71;100.00;101985.09;5164737;28;20046;-74
2022/11/10 03:49:03;;;;;;;21.67;3.20;;;;;;;8.71;100.00;101987.75;5163746;28;20022;-73
2022/11/10 03:51:33;;;;;;;16.90;2.70;;;;;;;8.70;100.00;101984.25;5165244;28;20025;-73
2022/11/10 03:54:04;;;;;;;15.90;3.70;;;;;;;8.70;100.00;101994.09;5164592;28;20030;-73
2022/11/10 03:56:35;;;;;;;20.55;3.72;;;;;;;8.68;100.00;101998.72;5165372;28;20053;-73
2022/11/10 03:59:05;;;;;;;22.15;3.25;;;;;;;8.65;100.00;102005.16;5165199;28;20505;-73
2022/11/10 04:01:35;;;;;;;29.48;3.97;;;;;;;8.64;100.00;102006.16;5165277;28;20367;-73
2022/11/10 04:08:57;;;;;;;18.67;3.72;;;;;;;8.67;100.00;102007.72;5165093;28;20105;-73
2022/11/10 04:09:48;;;;;;;16.00;3.10;;;;;;;8.80;100.00;102019.97;5164528;28;20054;-73
2022/11/10 04:20:50;;;;;;;17.17;3.42;;;;;;;9.19;100.00;102019.47;5164487;28;20493;-72
2022/11/10 04:23:25;;;;;;;29.13;3.63;;;;;;;9.22;100.00;102020.03;5164008;28;20028;-72
2022/11/10 04:28:47;;;;;;;24.40;4.00;;;;;;;9.20;100.00;102022.00;5153861;28;20108;-73
2022/11/10 04:31:19;;;;;;;15.35;3.25;;;;;;;9.19;100.00;102025.66;5160991;28;20026;-72
2022/11/10 04:33:51;;;;;;;24.35;3.83;;;;;;;9.19;100.00;102036.38;5156059;28;20026;-72
2022/11/10 04:36:24;;;;;;;17.60;3.85;;;;;;;9.16;100.00;102041.13;5163892;28;20026;-72
2022/11/10 04:38:55;;;;;;;22.65;2.90;;;;;;;9.14;100.00;102043.94;5163610;28;20114;-72
2022/11/10 04:41:27;;;;;;;14.80;3.30;;;;;;;9.10;100.00;102049.69;5163978;28;20030;-72
2022/11/10 04:43:58;;;;;;;21.92;4.22;;;;;;;9.05;100.00;102042.88;5164083;28;20023;-72
2022/11/10 04:46:38;;;;;;;23.52;3.42;;;;;;;8.99;100.00;102056.78;5162501;28;20050;-72
2022/11/10 04:49:09;;;;;;;22.45;3.40;;;;;;;8.97;100.00;102061.38;5163743;28;20235;-72
2022/11/10 04:51:40;;;;;;;19.85;3.45;;;;;;;8.91;100.00;102059.22;5163855;28;20022;-72
2022/11/10 04:54:10;;;;;;;25.98;2.90;;;;;;;8.88;100.00;102064.81;5163606;28;20420;-72
2022/11/10 04:56:41;;;;;;;23.48;3.80;;;;;;;8.91;100.00;102077.09;5163223;28;20612;-72
2022/11/10 04:59:12;;;;;;;20.25;3.28;;;;;;;8.91;100.00;102069.94;5163172;28;20026;-72
2022/11/10 05:01:42;;;;;;;18.83;3.58;;;;;;;8.87;100.00;102073.81;5163629;28;20092;-72
2022/11/10 05:04:12;;;;;;;15.50;3.22;;;;;;;8.87;100.00;102079.19;5163760;28;20026;-72
2022/11/10 05:06:43;;;;;;;17.63;2.83;;;;;;;8.82;100.00;102076.88;5162978;28;20026;-72
2022/11/10 05:09:13;;;;;;;18.85;3.78;;;;;;;8.77;100.00;102072.88;5162141;28;20038;-72
2022/11/10 05:11:44;;;;;;;22.63;3.72;;;;;;;8.73;100.00;102071.41;5163398;28;20026;-72
2022/11/10 05:14:14;;;;;;;16.83;3.33;;;;;;;8.68;100.00;102073.63;5163597;28;20023;-72
2022/11/10 05:16:45;;;;;;;19.42;3.95;;;;;;;8.66;100.00;102070.22;5178407;28;20502;-72
2022/11/10 05:19:15;;;;;;;26.40;4.38;;;;;;;8.63;100.00;102078.47;5162940;28;20072;-72
2022/11/10 05:21:46;;;;;;;18.77;2.58;;;;;;;8.61;100.00;102075.94;5163489;28;20068;-72
2022/11/10 05:24:16;;;;;;;22.30;3.00;;;;;;;8.57;100.00;102080.69;5163780;28;20015;-72
2022/11/10 05:26:47;;;;;;;18.92;3.40;;;;;;;8.51;100.00;102075.81;5155965;28;20023;-71
2022/11/10 05:29:17;;;;;;;14.35;3.03;;;;;;;8.49;100.00;102082.28;5157365;28;20458;-72
2022/11/10 05:31:48;;;;;;;23.95;3.45;;;;;;;8.42;100.00;102089.09;5156139;28;20046;-72
2022/11/10 05:34:18;;;;;;;32.25;3.60;;;;;;;8.37;100.00;102097.47;5158542;28;20018;-72
2022/11/10 05:36:48;;;;;;;19.52;3.47;;;;;;;8.32;100.00;102100.47;5162958;28;20437;-72
2022/11/10 05:39:19;;;;;;;22.45;4.22;;;;;;;8.29;100.00;102111.44;5163285;28;20077;-72
2022/11/10 05:41:50;;;;;;;26.10;3.00;;;;;;;8.25;100.00;102109.97;5163321;28;20038;-72
2022/11/10 05:44:20;;;;;;;22.20;3.33;;;;;;;8.21;100.00;102105.81;5163435;28;20102;-72
2022/11/10 05:46:50;;;;;;;32.28;3.65;;;;;;;8.18;100.00;102107.88;5162720;28;20030;-72
2022/11/10 05:49:21;;;;;;;19.33;3.40;;;;;;;8.11;100.00;102106.66;5163807;28;20496;-72
2022/11/10 05:51:51;;;;;;;21.98;3.35;;;;;;;8.07;100.00;102103.38;5163162;28;20061;-72
2022/11/10 05:54:22;;;;;;;27.52;3.70;;;;;;;8.02;100.00;102102.88;5163169;28;20470;-71
2022/11/10 05:56:52;;;;;;;17.20;3.08;;;;;;;7.97;100.00;102102.38;5162096;28;20097;-71
2022/11/10 05:59:23;;;;;;;22.45;4.13;;;;;;;7.94;100.00;102098.13;5163138;28;20054;-71
2022/11/10 06:01:53;;;;;;;15.50;3.10;;;;;;;7.92;100.00;102109.91;5162941;28;20023;-71
2022/11/10 06:04:24;;;;;;;28.08;4.28;;;;;;;7.93;100.00;102112.47;5163245;28;20113;-71
2022/11/10 06:06:54;;;;;;;24.15;3.85;;;;;;;7.92;100.00;102116.09;5162817;28;20034;-71
2022/11/10 06:09:25;;;;;;;20.38;3.60;;;;;;;7.92;100.00;102123.25;5163232;28;20026;-71
2022/11/10 06:11:55;;;;;;;21.02;3.72;;;;;;;7.89;100.00;102129.72;5165091;28;20084;-71
2022/11/10 06:14:26;;;;;;;31.05;4.38;;;;;;;7.86;100.00;102135.28;5166869;28;20026;-71
2022/11/10 06:16:56;;;;;;;18.90;4.25;;;;;;;7.81;100.00;102137.44;5166143;28;20093;-71
2022/11/10 06:19:26;;;;;;;20.92;3.65;;;;;;;7.81;100.00;102134.78;5166820;28;20026;-71
2022/11/10 06:21:57;;;;;;;32.97;4.57;;;;;;;7.80;100.00;102151.78;5166217;28;20029;-71
2022/11/10 06:24:27;;;;;;;21.77;4.28;;;;;;;7.74;100.00;102150.44;5167723;28;20029;-71
2022/11/10 06:26:58;;;;;;;19.27;3.92;;;;;;;7.68;100.00;102158.03;5167886;28;20090;-71
2022/11/10 06:29:28;;;;;;;22.42;4.28;;;;;;;7.61;100.00;102163.00;5162710;28;20029;-71
2022/11/10 06:31:59;;;;;;;26.80;4.35;;;;;;;7.59;100.00;102161.41;5173407;28;20039;-71
2022/11/10 06:34:29;;;;;;;18.67;3.92;;;;;;;7.55;100.00;102167.94;5163100;28;20034;-70
2022/11/10 06:37:00;;;;;;;16.17;3.78;;;;;;;7.55;100.00;102174.13;5166115;28;20030;-71
2022/11/10 06:39:30;;;;;;;17.13;3.88;;;;;;;7.52;100.00;102177.88;5166391;28;20073;-71
2022/11/10 06:42:00;;;;;;;19.80;3.90;;;;;;;7.52;100.00;102177.88;5166365;28;20022;-71
2022/11/10 06:44:31;;;;;;;23.05;5.00;;;;;;;7.50;100.00;102177.16;5166435;28;20100;-70
2022/11/10 06:47:01;;;;;;;26.50;3.95;;;;;;;7.54;100.00;102185.78;5163881;28;20034;-70
2022/11/10 06:49:32;;;;;;;27.02;4.07;;;;;;;7.50;100.00;102185.16;5166265;28;20484;-71
2022/11/10 06:52:03;;;;;;;29.52;4.28;;;;;;;7.51;100.00;102189.53;5166152;28;20522;-71
2022/11/10 06:54:33;;;;;;;26.73;3.95;;;;;;;7.52;100.00;102183.22;5165967;28;20033;-71
2022/11/10 06:57:04;;;;;;;29.85;3.80;;;;;;;7.55;100.00;102200.00;5165509;28;20474;-71
2022/11/10 06:59:34;;;;;;;21.90;3.75;;;;;;;7.55;100.00;102202.66;5165557;28;20588;-71
2022/11/10 07:02:05;;;;;;;21.20;3.88;;;;;;;7.57;100.00;102214.06;5165972;28;20045;-71
2022/11/10 07:04:35;;;;;;;19.33;3.22;;;;;;;7.58;100.00;102211.31;5165912;28;20024;-71
2022/11/10 07:07:06;;;;;;;19.52;4.32;;;;;;;7.64;100.00;102212.66;5165225;28;20022;-71
2022/11/10 07:09:36;;;;;;;29.98;4.65;;;;;;;7.70;100.00;102214.88;5165774;28;20026;-71
2022/11/10 07:12:07;;;;;;;26.08;4.30;;;;;;;7.75;100.00;102215.38;5165426;28;20038;-71
2022/11/10 07:14:37;;;;;;;29.95;4.97;;;;;;;7.77;100.00;102221.47;5165583;28;20023;-71
2022/11/10 07:17:08;;;;;;;22.83;3.92;;;;;;;7.81;100.00;102224.75;5165328;28;20022;-71
2022/11/10 07:19:38;;;;;;;26.30;4.10;;;;;;;7.84;100.00;102228.06;5165404;28;20026;-70
2022/11/10 07:22:09;;;;;;;29.10;3.90;;;;;;;7.90;100.00;102230.28;5165255;28;20116;-71
2022/11/10 07:24:40;;;;;;;31.42;3.72;;;;;;;8.01;100.00;102230.31;5167249;28;20160;-71
2022/11/10 07:27:10;;;;;;;18.63;4.65;;;;;;;8.16;100.00;102230.13;5164288;28;20102;-71
2022/11/10 07:29:41;;;;;;;18.27;3.90;;;;;;;8.31;100.00;102240.50;5163028;28;20513;-71
2022/11/10 07:32:11;;;;;;;21.48;3.50;;;;;;;8.50;100.00;102241.78;5170800;28;20034;-71
2022/11/10 07:34:42;;;;;;;20.73;3.30;;;;;;;8.70;100.00;102249.13;5163483;28;20115;-71
2022/11/10 07:37:12;;;;;;;26.77;4.03;;;;;;;8.87;100.00;102253.13;5164553;28;20029;-71
2022/11/10 07:39:42;;;;;;;19.40;3.85;;;;;;;9.28;100.00;102268.56;5165069;28;20034;-72
2022/11/10 07:42:13;;;;;;;18.48;3.60;;;;;;;9.47;100.00;102272.44;5165099;28;20018;-71
2022/11/10 07:44:43;;;;;;;19.27;3.15;;;;;;;9.64;100.00;102268.38;5165052;28;20152;-71
2022/11/10 07:47:14;;;;;;;22.65;3.70;;;;;;;9.85;100.00;102274.69;5164110;28;20030;-71
2022/11/10 07:49:44;;;;;;;10.40;2.92;;;;;;;9.98;100.00;102278.03;5165133;28;20022;-71
2022/11/10 07:52:15;;;;;;;19.42;2.97;;;;;;;10.20;100.00;102279.78;5164988;28;20133;-72
2022/11/10 07:54:45;;;;;;;18.17;3.40;;;;;;;10.36;100.00;102277.53;5164852;28;20026;-71
2022/11/10 07:57:15;;;;;;;19.73;3.50;;;;;;;10.45;100.00;102273.22;5164343;28;20022;-71
2022/11/10 07:59:46;;;;;;;25.55;3.58;;;;;;;10.78;100.00;102279.34;5164966;28;20033;-72
2022/11/10 08:02:16;;;;;;;12.05;3.60;;;;;;;10.75;100.00;102285.84;5164818;28;20101;-72
2022/11/10 08:04:47;;;;;;;24.65;3.33;;;;;;;11.04;100.00;102295.88;5164708;28;20057;-72
2022/11/10 08:07:17;;;;;;;15.50;3.47;;;;;;;11.18;100.00;102294.69;5164459;28;20478;-72
2022/11/10 08:09:49;;;;;;;17.25;2.83;;;;;;;11.37;100.00;102286.69;5164608;28;20402;-72
2022/11/10 08:12:19;;;;;;;16.40;3.13;;;;;;;11.34;100.00;102286.94;5164738;28;20105;-72
2022/11/10 08:14:50;;;;;;;27.00;3.85;;;;;;;11.36;100.00;102287.69;5164840;28;20118;-72
2022/11/10 08:17:20;;;;;;;13.70;3.17;;;;;;;11.80;100.00;102285.53;5164528;28;20050;-72
2022/11/10 08:19:51;;;;;;;18.65;3.97;;;;;;;11.77;100.00;102294.72;5164893;28;20529;-72
2022/11/10 08:22:21;;;;;;;14.35;2.80;;;;;;;11.99;100.00;102293.63;5164784;28;20022;-71
2022/11/10 08:24:52;;;;;;;16.30;3.00;;;;;;;12.00;100.00;102299.84;5166807;28;20034;-72
2022/11/10 08:27:22;;;;;;;17.50;2.90;;;;;;;12.21;100.00;102323.97;5151635;28;20019;-72
2022/11/10 08:29:52;;;;;;;19.90;3.67;;;;;;;12.57;100.00;102312.47;5163443;28;20049;-72
2022/11/10 08:32:23;;;;;;;18.60;3.20;;;;;;;12.66;100.00;102311.59;5153100;28;20066;-72
2022/11/10 08:34:53;;;;;;;17.15;2.90;;;;;;;13.18;100.00;102316.56;5163633;28;20057;-72
2022/11/10 08:37:25;;;;;;;14.70;3.17;;;;;;;13.52;100.00;102308.78;5163155;28;20026;-72
2022/11/10 08:39:56;;;;;;;16.35;3.42;;;;;;;13.88;100.00;102304.31;5164098;28;20429;-72
2022/11/10 08:42:26;;;;;;;13.10;2.90;;;;;;;13.72;100.00;102302.28;5163864;28;20030;-72
2022/11/10 08:44:57;;;;;;;21.27;3.72;;;;;;;13.64;100.00;102306.72;5179214;28;20022;-72
2022/11/10 08:47:27;;;;;;;18.48;3.40;;;;;;;13.81;100.00;102305.09;5163085;28;20034;-72
2022/11/10 08:49:57;;;;;;;18.75;3.22;;;;;;;13.87;100.00;102317.97;5163538;28;20030;-72
2022/11/10 08:52:28;;;;;;;17.20;3.60;;;;;;;13.98;100.00;102325.81;5163867;28;20026;-72
2022/11/10 08:54:58;;;;;;;17.27;3.65;;;;;;;13.70;100.00;102336.66;5163721;28;20037;-72
2022/11/10 08:57:29;;;;;;;15.93;2.83;;;;;;;14.28;100.00;102345.34;5163094;28;20533;-72
2022/11/10 08:59:59;;;;;;;13.65;3.65;;;;;;;14.20;100.00;102348.81;5163709;28;20030;-72
2022/11/10 09:02:30;;;;;;;16.92;3.58;;;;;;;14.08;100.00;102340.09;5163548;28;20078;-72
2022/11/10 09:05:01;;;;;;;19.25;3.22;;;;;;;14.42;100.00;102337.56;5163699;28;20065;-72
2022/11/10 09:07:41;;;;;;;12.20;2.72;;;;;;;14.57;100.00;102342.44;5163099;28;20505;-72
2022/11/10 09:10:13;;;;;;;13.68;2.63;;;;;;;15.12;100.00;102358.38;5163610;28;20034;-72
2022/11/10 09:12:43;;;;;;;16.73;3.50;;;;;;;15.01;100.00;102359.50;5163209;28;20061;-73
2022/11/10 09:15:14;;;;;;;14.05;3.08;;;;;;;14.82;100.00;102359.69;5163313;28;20109;-72
2022/11/10 09:17:45;;;;;;;18.60;2.90;;;;;;;15.10;100.00;102363.09;5163147;28;20278;-72
2022/11/10 09:20:15;;;;;;;22.90;3.95;;;;;;;14.98;100.00;102363.34;5163478;28;20480;-72
2022/11/10 09:22:46;;;;;;;18.88;3.20;;;;;;;14.95;100.00;102368.22;5163323;28;20097;-72
2022/11/10 09:25:16;;;;;;;15.30;2.58;;;;;;;14.99;100.00;102373.16;5164267;28;20045;-73
2022/11/10 09:27:47;;;;;;;17.98;3.20;;;;;;;15.47;100.00;102373.63;5149877;28;20023;-72
2022/11/10 09:30:17;;;;;;;12.23;2.70;;;;;;;15.21;100.00;102374.50;5163538;28;20038;-73
2022/11/10 09:32:58;;;;;;;14.45;2.60;;;;;;;15.55;100.00;102371.78;5151915;28;20025;-73
2022/11/10 09:35:29;;;;;;;16.67;3.15;;;;;;;15.71;100.00;102373.78;5163147;28;20121;-73
2022/11/10 09:37:59;;;;;;;17.08;2.97;;;;;;;15.45;100.00;102376.47;5162473;28;20103;-73
2022/11/10 09:40:54;;;;;;;18.25;3.70;;;;;;;15.45;100.00;102379.16;5163589;28;20072;-73
2022/11/10 09:43:36;;;;;;;15.30;3.00;;;;;;;15.33;100.00;102374.22;5163278;28;20109;-73
2022/11/10 09:46:19;;;;;;;17.85;3.45;;;;;;;15.01;100.00;102379.25;5165587;28;20049;-73
2022/11/10 09:48:54;;;;;;;13.30;3.40;;;;;;;14.91;100.00;102373.09;5166812;28;20493;-73
2022/11/10 09:51:30;;;;;;;20.70;3.03;;;;;;;14.91;100.00;102366.81;5167461;28;20117;-73
2022/11/10 09:54:15;;;;;;;18.42;2.40;;;;;;;14.60;100.00;102361.88;5167014;28;20478;-73
2022/11/10 09:56:46;;;;;;;15.93;3.13;;;;;;;14.43;100.00;102365.41;5166877;28;20446;-73
2022/11/10 09:59:25;;;;;;;16.85;3.50;;;;;;;14.29;100.00;102363.25;5167256;28;20053;-73
2022/11/10 10:02:03;;;;;;;16.60;3.55;;;;;;;14.38;100.00;102363.16;5167075;28;20503;-73
2022/11/10 10:05:07;;;;;;;21.17;3.10;;;;;;;14.42;100.00;102366.41;5167153;28;20042;-73
2022/11/10 10:07:55;;;;;;;17.20;2.78;;;;;;;14.54;100.00;102372.44;5156259;28;20034;-73
2022/11/10 10:10:43;;;;;;;15.32;3.35;;;;;;;14.45;100.00;102366.09;5166856;28;20513;-73
2022/11/10 10:14:02;;;;;;;18.42;3.28;;;;;;;14.29;100.00;102371.34;5167389;28;20042;-73
2022/11/10 10:16:47;;;;;;;20.98;3.72;;;;;;;14.38;100.00;102373.13;5166482;28;20099;-73
2022/11/10 10:19:30;;;;;;;;;;;;;;;14.20;100.00;102359.59;5166526;28;20030;-73
2022/11/10 10:22:25;;;;;;;14.55;2.80;;;;;;;14.55;100.00;102369.59;5165684;28;19914;-73
2022/11/10 10:25:00;;;;;;;9.32;2.72;;;;;;;14.69;100.00;102379.84;5169461;28;20022;-73
2022/11/10 10:27:31;;;;;;;;;;;;;;;14.43;100.00;102370.81;5160823;28;20027;-73
2022/11/10 10:30:11;;;;;;;9.63;2.92;;;;;;;14.61;100.00;102369.00;5166413;28;19916;-73
2022/11/10 10:32:42;;;;;;;17.08;3.10;;;;;;;14.72;100.00;102387.66;5155285;28;20034;-73
2022/11/10 10:35:16;;;;;;;14.98;2.30;;;;;;;14.82;100.00;102379.44;5181540;28;20440;-73
2022/11/10 10:37:51;;;;;;;15.75;2.72;;;;;;;14.88;100.00;102396.88;5166477;28;20062;-73
2022/11/10 10:40:23;;;;;;;13.32;2.22;;;;;;;14.72;100.00;102393.03;5166223;28;20444;-73
2022/11/10 10:42:53;;;;;;;17.92;2.67;;;;;;;14.87;100.00;102396.03;5165953;28;20069;-72
2022/11/10 10:45:27;;;;;;;19.27;2.47;;;;;;;14.93;100.00;102397.25;5166142;28;20038;-73
2022/11/10 10:48:00;;;;;;;11.70;2.15;;;;;;;14.88;100.00;102397.72;5166099;28;20061;-73
2022/11/10 10:50:33;;;;;;;18.33;2.85;;;;;;;14.96;100.00;102399.63;5165809;28;20030;-72
2022/11/10 10:53:06;;;;;;;13.40;2.40;;;;;;;15.14;100.00;102408.56;5165201;28;20493;-73
2022/11/10 10:55:39;;;;;;;14.90;2.42;;;;;;;15.11;100.00;102408.00;5165998;28;20028;-73
2022/11/10 10:58:27;;;;;;;15.35;2.22;;;;;;;15.34;100.00;102419.16;5164866;28;20073;-72
2022/11/10 11:01:04;;;;;;;13.23;2.97;;;;;;;15.58;100.00;102424.72;5154655;28;20449;-73
2022/11/10 11:03:41;;;;;;;12.68;2.45;;;;;;;15.69;100.00;102434.44;5165768;28;20021;-73
2022/11/10 11:06:15;;;;;;;8.07;2.10;;;;;;;15.65;100.00;102444.72;5165950;28;20049;-73
2022/11/10 11:09:07;;;;;;;6.78;1.80;;;;;;;15.63;100.00;102444.06;5165041;28;20026;-73
2022/11/10 11:11:41;;;;;;;8.88;2.25;;;;;;;15.62;100.00;102444.19;5165708;28;20062;-73
2022/11/10 11:14:18;;;;;;;21.65;2.95;;;;;;;15.38;100.00;102440.31;5165602;28;20046;-73
2022/11/10 11:16:56;;;;;;;11.13;2.40;;;;;;;15.26;100.00;102433.47;5165622;28;20030;-73
2022/11/10 11:19:32;;;;;;;12.15;2.15;;;;;;;15.21;100.00;102431.25;5165448;28;20097;-73
2022/11/10 11:22:18;;;;;;;9.30;2.10;;;;;;;15.10;100.00;102430.66;5165381;28;20853;-73
2022/11/10 11:25:27;;;;;;;;;;;;;;;15.09;100.00;102434.38;5167705;28;20029;-73
2022/11/10 11:28:06;;;;;;;12.40;1.73;;;;;;;14.94;100.00;102421.41;5184793;28;20296;-73
2022/11/10 11:30:56;;;;;;;11.25;2.72;;;;;;;15.07;100.00;102431.00;5183028;28;20026;-73
2022/11/10 11:33:39;;;;;;;11.13;2.10;;;;;;;15.32;100.00;102437.41;5158801;28;20073;-73
2022/11/10 11:36:47;;;;;;;11.50;2.40;;;;;;;15.36;100.00;102438.78;5165256;28;20034;-73
2022/11/10 11:39:32;;;;;;;9.10;1.83;;;;;;;15.31;100.00;102439.25;5164977;28;20034;-72
2022/11/10 11:42:24;;;;;;;5.78;1.30;;;;;;;15.29;100.00;102447.53;5165262;28;20034;-72
2022/11/10 11:45:14;;;;;;;9.30;1.75;;;;;;;15.07;100.00;102455.31;5154016;28;20035;-72
2022/11/10 11:47:54;;;;;;;7.43;1.50;;;;;;;15.15;100.00;102458.91;5164435;28;20073;-72
2022/11/10 11:50:54;;;;;;;8.68;1.50;;;;;;;15.28;100.00;102466.63;5165268;28;20034;-72
2022/11/10 11:53:49;;;;;;;8.10;2.40;;;;;;;15.16;100.00;102466.03;5164876;28;20037;-72
2022/11/10 11:56:30;;;;;;;7.03;1.30;;;;;;;15.29;100.00;102477.28;5165012;28;20449;-73
2022/11/10 11:59:23;;;;;;;10.30;1.67;;;;;;;15.49;100.00;102471.66;5164365;28;20026;-73
2022/11/10 12:01:56;;;;;;;12.38;2.28;;;;;;;15.59;100.00;102467.00;5164739;28;20030;-72